Washington, Connecticut
Current Conditions -  °F | °C
As of 8:50 AM on Thursday 29 Jan 2015 (Local Time) from KOXC Reporting Station
Broken Clouds Broken Clouds  
Wind Chill: 12°   Ceiling: 25000
Heat Index: 12°   Visibility: 10mi
Dew Point: -4°   Wind: 0mph
Humidity: 48%   Direction: NA
Pressure: 30.28"   Gusts: NA
Location:  41.63°N, 73.31°W
Report Text: KOXC 291350Z 00000KT 10SM BKN250 M11/M20 A3028
Loading
Personal Weather Stations






























Interactive Weather Map New forecast layout! Learn more

10-Day Weather Forecast

Advertisements
Track Severe Weather on mobile